Friday, April 20, 2018, 6:28 AM EDT
Back to Local

KLWM, Lawrence Municipal Airport

Location: North Andover, MA, United States Lat: 42.717
Local Time: 6:28 AM EDT (10:28 GMT) Lon: -71.133
Time Zone: US/Eastern Elev: 147 ft

Show me the last for .
Show Decoded

2018-04-20 05:54 METAR KLWM 200954Z AUTO 28005KT 10SM BKN080 OVC090 03/M03 A2992 RMK AO2 SLP132
                 T00281028 =
2018-04-20 04:54 METAR KLWM 200854Z AUTO 29007KT 10SM OVC070 03/M03 A2989 RMK AO2 SLP121
                 T00331028 53011 =
2018-04-20 03:54 METAR KLWM 200754Z AUTO 30008G17KT 10SM OVC070 04/M02 A2987 RMK AO2 SLP117
                 T00391022 =
2018-04-20 02:54 METAR KLWM 200654Z AUTO 29012G16KT 10SM FEW034 BKN055 OVC070 04/M02 A2987 RMK
                 AO2 SLP114 T00391022 =
2018-04-20 01:54 METAR KLWM 200554Z AUTO 29007KT 10SM BKN055 OVC070 04/M02 A2986 RMK AO2 SLP111
                 T00441022 10072 20044 53011 =
2018-04-20 00:54 METAR KLWM 200454Z AUTO 29009KT 10SM OVC090 05/M03 A2984 RMK AO2 SLP106
                 T00501028 400780022 =
2018-04-19 23:54 METAR KLWM 200354Z AUTO 30009G16KT 10SM BKN090 05/M02 A2983 RMK AO2 SLP100
                 T00501022 =
2018-04-19 22:54 METAR KLWM 200254Z AUTO 31008KT 10SM OVC110 06/M02 A2982 RMK AO2 SLP100
                 T00561022 51020 =
2018-04-19 21:54 METAR KLWM 200154Z 32010G17KT 10SM OVC100 06/M01 A2981 RMK AO2 SLP096 T00611011
                 =
2018-04-19 20:54 METAR KLWM 200054Z 30008KT 10SM OVC095 07/M01 A2979 RMK AO2 SLP088 T00671006 =
2018-04-19 19:54 METAR KLWM 192354Z 30004KT 10SM SCT043 BKN049 OVC095 07/01 A2976 RMK AO2 SLP079
                 60001 T00670011 10078 20067 53018 =
2018-04-19 18:54 METAR KLWM 192254Z 32006KT 10SM FEW018 SCT080 BKN100 07/02 A2974 RMK AO2 SLP071
                 T00720022 =
2018-04-19 17:54 METAR KLWM 192154Z 26004KT 10SM FEW018 BKN049 OVC070 07/03 A2973 RMK AO2
                 RAE05B29E47 SLP066 P0001 T00670028 =
2018-04-19 16:54 METAR KLWM 192054Z 25008KT 10SM -RA BKN018 BKN042 OVC050 08/03 A2971 RMK AO2
                 SLP062 P0000 60000 T00780028 53006 =
2018-04-19 15:54 METAR KLWM 191954Z 22006KT 10SM -RA OVC048 07/02 A2970 RMK AO2 RAB41 SLP057
                 P0000 T00720022 =
2018-04-19 14:54 METAR KLWM 191854Z 22004KT 10SM FEW024 BKN034 OVC070 07/01 A2969 RMK AO2 SLP055
                 T00720011 =
2018-04-19 14:47 METAR KLWM 191847Z 22004KT 10SM FEW025 BKN030 OVC070 07/02 A2969 RMK AO2
                 T00720017 =
2018-04-19 13:54 METAR KLWM 191754Z 00000KT 10SM BKN023 OVC030 07/01 A2969 RMK AO2 SLP055 60006
                 T00670011 10067 20022 56010 =
2018-04-19 13:03 METAR KLWM 191703Z 00000KT 10SM SCT016 BKN021 OVC070 07/02 A2969 RMK AO2
                 T00670022 =
2018-04-19 12:54 METAR KLWM 191654Z 25003KT 10SM BKN014 OVC070 06/02 A2970 RMK AO2 SLP057
                 T00610017 =
2018-04-19 12:23 METAR KLWM 191623Z 00000KT 10SM OVC011 05/02 A2969 RMK AO2 T00500017 =
2018-04-19 11:54 METAR KLWM 191554Z 00000KT 10SM BKN007 BKN011 OVC065 04/02 A2970 RMK AO2 RAE1455
                 CIG 006V011 SLP059 P0000 T00440017 =
2018-04-19 10:54 METAR KLWM 191454Z 14003KT 10SM -RA OVC005 03/01 A2972 RMK AO2
                 UPB10E12B36E37RAB37SNE10B12E36 SLP065 P0000 60006 T00330011 58005 =
2018-04-19 10:34 METAR KLWM 191434Z 28004KT 7SM -SN BKN005 OVC008 03/01 A2973 RMK AO2
                 UPB10E12SNE10B12 P0000 T00280011 =
2018-04-19 10:02 METAR KLWM 191402Z 34003KT 3SM -SN BR OVC003 02/01 A2973 RMK AO2 P0000 T00220006
                 =
2018-04-19 09:54 METAR KLWM 191354Z 00000KT 2SM -SN BR OVC005 02/01 A2973 RMK AO2 SLP067 P0002
                 T00220006 =
2018-04-19 09:18 METAR KLWM 191318Z 24003KT 1 1/4SM -SN BR OVC005 02/01 A2975 RMK AO2 P0002
                 T00220006 =
2018-04-19 09:05 METAR KLWM 191305Z 22004KT 2SM -SN BR OVC006 02/01 A2975 RMK AO2 VIS 1 3/4V2 1/2
                 P0001 T00220006 =
2018-04-19 08:54 METAR KLWM 191254Z 21003KT 5SM -SN BR BKN007 OVC016 03/01 A2975 RMK AO2
                 RAE51SNB51 SLP073 P0004 T00280011 =
2018-04-19 08:46 METAR KLWM 191246Z 22003KT 5SM -RA BR BKN007 OVC016 03/01 A2975 RMK AO2 P0003
                 T00280006 =
2018-04-19 08:42 METAR KLWM 191242Z 25005KT 5SM RA SCT009 OVC016 03/01 A2975 RMK AO2 P0003
                 T00330006 =
2018-04-19 07:54 METAR KLWM 191154Z 29005KT 10SM -RA OVC022 05/00 A2974 RMK AO2 RAB31 SLP070
                 P0000 60000 T00500000 10067 20044 51002 =
2018-04-19 07:50 METAR KLWM 191150Z 29006KT 9SM -RA OVC024 05/00 A2973 RMK AO2 RAB31 P0000 =
2018-04-19 06:54 METAR KLWM 191054Z 23005KT 10SM OVC075 07/M02 A2974 RMK AO2 SLP072 T00671017 =

Support USWX by starting your Amazon purchase here.